Time;durP1;ratioP1;P1;durP2;ratioP2;P2;SDS_P1;SDS_P2;PMS_P1;PMS_P2;Temp;Humidity;BMP_temperature;BMP_pressure;BME280_temperature;BME280_humidity;BME280_pressure;Samples;Min_cycle;Max_cycle;Signal;HPM_P1;HPM_P2
2019/08/11 00:00:46;;;;;;;3.850001;2.7;;;;;;;17.68;94.72559;95596.04;;;;
2019/08/11 00:01:54;;;;;;;3.4;2.8;;;;;;;17.68;94.74707;95590.01;;;;
2019/08/11 00:02:55;;;;;;;3.4;2.8;;;;;;;17.68;94.74707;95590.01;;;;
2019/08/11 00:03:56;;;;;;;3.4;2.8;;;;;;;17.68;94.74707;95590.01;;;;
2019/08/11 00:04:57;;;;;;;3.4;2.8;;;;;;;17.68;94.74707;95590.01;;;;
2019/08/11 00:05:58;;;;;;;3.4;2.8;;;;;;;17.68;94.74707;95590.01;;;;
2019/08/11 00:06:59;;;;;;;3.4;2.8;;;;;;;17.68;94.74707;95590.01;;;;
2019/08/11 00:08:01;;;;;;;3.4;2.8;;;;;;;17.68;94.74707;95590.01;;;;
2019/08/11 00:09:02;;;;;;;3.4;2.8;;;;;;;17.68;94.74707;95590.01;;;;
2019/08/11 00:10:07;;;;;;;3.4;2.8;;;;;;;17.68;94.74707;95590.01;;;;
2019/08/11 00:11:10;;;;;;;3.4;2.8;;;;;;;17.68;94.74707;95590.01;;;;
2019/08/11 00:12:12;;;;;;;5.149999;3.1;;;;;;;17.61;94.76367;95581.42;;;;
2019/08/11 00:13:13;;;;;;;5.149999;3.1;;;;;;;17.61;94.76367;95581.42;;;;
2019/08/11 00:14:14;;;;;;;5.149999;3.1;;;;;;;17.61;94.76367;95581.42;;;;
2019/08/11 00:15:16;;;;;;;5.149999;3.1;;;;;;;17.61;94.76367;95581.42;;;;
2019/08/11 00:16:23;;;;;;;5.149999;3.1;;;;;;;17.61;94.76367;95581.42;;;;
2019/08/11 00:17:25;;;;;;;5.149999;3.1;;;;;;;17.61;94.76367;95581.42;;;;
2019/08/11 00:18:26;;;;;;;5.149999;3.1;;;;;;;17.61;94.76367;95581.42;;;;
2019/08/11 00:19:27;;;;;;;5.149999;3.1;;;;;;;17.61;94.76367;95581.42;;;;
2019/08/11 00:20:28;;;;;;;5.149999;3.1;;;;;;;17.61;94.76367;95581.42;;;;
2019/08/11 00:21:30;;;;;;;5.149999;3.1;;;;;;;17.61;94.76367;95581.42;;;;
2019/08/11 00:22:31;;;;;;;3.95;2.8;;;;;;;17.55;94.97656;95581.13;;;;
2019/08/11 00:23:32;;;;;;;3.95;2.8;;;;;;;17.55;94.97656;95581.13;;;;
2019/08/11 00:24:34;;;;;;;3.95;2.8;;;;;;;17.55;94.97656;95581.13;;;;
2019/08/11 00:25:35;;;;;;;3.95;2.8;;;;;;;17.55;94.97656;95581.13;;;;
2019/08/11 00:26:37;;;;;;;3.95;2.8;;;;;;;17.55;94.97656;95581.13;;;;
2019/08/11 00:27:39;;;;;;;3.95;2.8;;;;;;;17.55;94.97656;95581.13;;;;
2019/08/11 00:28:40;;;;;;;3.95;2.8;;;;;;;17.55;94.97656;95581.13;;;;
2019/08/11 00:29:47;;;;;;;3.95;2.8;;;;;;;17.55;94.97656;95581.13;;;;
2019/08/11 00:30:48;;;;;;;3.95;2.8;;;;;;;17.55;94.97656;95581.13;;;;
2019/08/11 00:31:55;;;;;;;3.95;2.8;;;;;;;17.55;94.97656;95581.13;;;;
2019/08/11 00:32:56;;;;;;;4.199999;2.95;;;;;;;17.37;95.17773;95585.19;;;;
2019/08/11 00:33:58;;;;;;;4.199999;2.95;;;;;;;17.37;95.17773;95585.19;;;;
2019/08/11 00:34:59;;;;;;;4.199999;2.95;;;;;;;17.37;95.17773;95585.19;;;;
2019/08/11 00:36:00;;;;;;;4.199999;2.95;;;;;;;17.37;95.17773;95585.19;;;;
2019/08/11 00:37:03;;;;;;;4.199999;2.95;;;;;;;17.37;95.17773;95585.19;;;;
2019/08/11 00:38:04;;;;;;;4.199999;2.95;;;;;;;17.37;95.17773;95585.19;;;;
2019/08/11 00:39:06;;;;;;;4.199999;2.95;;;;;;;17.37;95.17773;95585.19;;;;
2019/08/11 00:40:07;;;;;;;4.199999;2.95;;;;;;;17.37;95.17773;95585.19;;;;
2019/08/11 00:41:11;;;;;;;4.199999;2.95;;;;;;;17.37;95.17773;95585.19;;;;
2019/08/11 00:42:26;;;;;;;4.199999;2.95;;;;;;;17.37;95.17773;95585.19;;;;
2019/08/11 00:43:27;;;;;;;4.199999;2.95;;;;;;;17.37;95.17773;95585.19;;;;
2019/08/11 00:44:28;;;;;;;6.799999;2.95;;;;;;;17.31;95.46777;95584.48;;;;
2019/08/11 00:45:30;;;;;;;6.799999;2.95;;;;;;;17.31;95.46777;95584.48;;;;
2019/08/11 00:46:31;;;;;;;6.799999;2.95;;;;;;;17.31;95.46777;95584.48;;;;
2019/08/11 00:47:32;;;;;;;6.799999;2.95;;;;;;;17.31;95.46777;95584.48;;;;
2019/08/11 00:48:33;;;;;;;6.799999;2.95;;;;;;;17.31;95.46777;95584.48;;;;
2019/08/11 00:49:34;;;;;;;6.799999;2.95;;;;;;;17.31;95.46777;95584.48;;;;
2019/08/11 00:50:36;;;;;;;6.799999;2.95;;;;;;;17.31;95.46777;95584.48;;;;
2019/08/11 00:51:37;;;;;;;6.799999;2.95;;;;;;;17.31;95.46777;95584.48;;;;
2019/08/11 00:52:38;;;;;;;6.799999;2.95;;;;;;;17.31;95.46777;95584.48;;;;
2019/08/11 00:53:40;;;;;;;6.799999;2.95;;;;;;;17.31;95.46777;95584.48;;;;
2019/08/11 00:54:41;;;;;;;7.45;3.4;;;;;;;17.25;95.61523;95576.44;;;;
2019/08/11 00:55:42;;;;;;;7.45;3.4;;;;;;;17.25;95.61523;95576.44;;;;
2019/08/11 00:56:43;;;;;;;7.45;3.4;;;;;;;17.25;95.61523;95576.44;;;;
2019/08/11 00:57:44;;;;;;;7.45;3.4;;;;;;;17.25;95.61523;95576.44;;;;
2019/08/11 00:58:46;;;;;;;7.45;3.4;;;;;;;17.25;95.61523;95576.44;;;;
2019/08/11 00:59:47;;;;;;;7.45;3.4;;;;;;;17.25;95.61523;95576.44;;;;
2019/08/11 01:00:48;;;;;;;7.45;3.4;;;;;;;17.25;95.61523;95576.44;;;;
2019/08/11 01:01:50;;;;;;;7.45;3.4;;;;;;;17.25;95.61523;95576.44;;;;
2019/08/11 01:02:51;;;;;;;7.45;3.4;;;;;;;17.25;95.61523;95576.44;;;;
2019/08/11 01:03:52;;;;;;;7.45;3.4;;;;;;;17.25;95.61523;95576.44;;;;
2019/08/11 01:04:53;;;;;;;6.1;2.9;;;;;;;17.25;95.93066;95579.97;;;;
2019/08/11 01:05:55;;;;;;;6.1;2.9;;;;;;;17.25;95.93066;95579.97;;;;
2019/08/11 01:06:56;;;;;;;6.1;2.9;;;;;;;17.25;95.93066;95579.97;;;;
2019/08/11 01:07:57;;;;;;;6.1;2.9;;;;;;;17.25;95.93066;95579.97;;;;
2019/08/11 01:08:58;;;;;;;6.1;2.9;;;;;;;17.25;95.93066;95579.97;;;;
2019/08/11 01:10:00;;;;;;;6.1;2.9;;;;;;;17.25;95.93066;95579.97;;;;
2019/08/11 01:11:02;;;;;;;6.1;2.9;;;;;;;17.25;95.93066;95579.97;;;;
2019/08/11 01:12:05;;;;;;;6.1;2.9;;;;;;;17.25;95.93066;95579.97;;;;
2019/08/11 01:13:06;;;;;;;6.1;2.9;;;;;;;17.25;95.93066;95579.97;;;;
2019/08/11 01:14:10;;;;;;;6.1;2.9;;;;;;;17.25;95.93066;95579.97;;;;
2019/08/11 01:15:11;;;;;;;6.1;2.9;;;;;;;17.25;95.93066;95579.97;;;;
2019/08/11 01:16:14;;;;;;;4.25;3;;;;;;;17.17;95.91211;95586.1;;;;
2019/08/11 01:17:16;;;;;;;4.25;3;;;;;;;17.17;95.91211;95586.1;;;;
2019/08/11 01:18:17;;;;;;;4.25;3;;;;;;;17.17;95.91211;95586.1;;;;
2019/08/11 01:19:19;;;;;;;4.25;3;;;;;;;17.17;95.91211;95586.1;;;;
2019/08/11 01:20:22;;;;;;;4.25;3;;;;;;;17.17;95.91211;95586.1;;;;
2019/08/11 01:21:31;;;;;;;4.25;3;;;;;;;17.17;95.91211;95586.1;;;;
2019/08/11 01:22:33;;;;;;;4.25;3;;;;;;;17.17;95.91211;95586.1;;;;
2019/08/11 01:23:35;;;;;;;4.25;3;;;;;;;17.17;95.91211;95586.1;;;;
2019/08/11 01:24:36;;;;;;;4.25;3;;;;;;;17.17;95.91211;95586.1;;;;
2019/08/11 01:25:37;;;;;;;4.25;3;;;;;;;17.17;95.91211;95586.1;;;;
2019/08/11 01:26:38;;;;;;;4.55;2.900001;;;;;;;17.03;96.14063;95578.97;;;;
2019/08/11 01:27:40;;;;;;;4.55;2.900001;;;;;;;17.03;96.14063;95578.97;;;;
2019/08/11 01:28:41;;;;;;;4.55;2.900001;;;;;;;17.03;96.14063;95578.97;;;;
2019/08/11 01:29:42;;;;;;;4.55;2.900001;;;;;;;17.03;96.14063;95578.97;;;;
2019/08/11 01:30:44;;;;;;;4.55;2.900001;;;;;;;17.03;96.14063;95578.97;;;;
2019/08/11 01:31:45;;;;;;;4.55;2.900001;;;;;;;17.03;96.14063;95578.97;;;;
2019/08/11 01:32:46;;;;;;;4.55;2.900001;;;;;;;17.03;96.14063;95578.97;;;;
2019/08/11 01:33:48;;;;;;;4.55;2.900001;;;;;;;17.03;96.14063;95578.97;;;;
2019/08/11 01:34:49;;;;;;;4.55;2.900001;;;;;;;17.03;96.14063;95578.97;;;;
2019/08/11 01:35:50;;;;;;;4.55;2.900001;;;;;;;17.03;96.14063;95578.97;;;;
2019/08/11 01:36:51;;;;;;;2.95;2.65;;;;;;;16.83;96.34668;95575.76;;;;
2019/08/11 01:37:52;;;;;;;2.95;2.65;;;;;;;16.83;96.34668;95575.76;;;;
2019/08/11 01:38:54;;;;;;;2.95;2.65;;;;;;;16.83;96.34668;95575.76;;;;
2019/08/11 01:39:55;;;;;;;2.95;2.65;;;;;;;16.83;96.34668;95575.76;;;;
2019/08/11 01:40:56;;;;;;;2.95;2.65;;;;;;;16.83;96.34668;95575.76;;;;
2019/08/11 01:41:57;;;;;;;2.95;2.65;;;;;;;16.83;96.34668;95575.76;;;;
2019/08/11 01:42:58;;;;;;;2.95;2.65;;;;;;;16.83;96.34668;95575.76;;;;
2019/08/11 01:44:01;;;;;;;2.95;2.65;;;;;;;16.83;96.34668;95575.76;;;;
2019/08/11 01:45:03;;;;;;;2.95;2.65;;;;;;;16.83;96.34668;95575.76;;;;
2019/08/11 01:46:12;;;;;;;2.95;2.65;;;;;;;16.83;96.34668;95575.76;;;;
2019/08/11 01:47:13;;;;;;;4.300001;2.8;;;;;;;16.75;96.80273;95576.68;;;;
2019/08/11 01:48:14;;;;;;;4.300001;2.8;;;;;;;16.75;96.80273;95576.68;;;;
2019/08/11 01:49:16;;;;;;;4.300001;2.8;;;;;;;16.75;96.80273;95576.68;;;;
2019/08/11 01:50:17;;;;;;;4.300001;2.8;;;;;;;16.75;96.80273;95576.68;;;;
2019/08/11 01:51:19;;;;;;;4.300001;2.8;;;;;;;16.75;96.80273;95576.68;;;;
2019/08/11 01:52:20;;;;;;;4.300001;2.8;;;;;;;16.75;96.80273;95576.68;;;;
2019/08/11 01:53:21;;;;;;;4.300001;2.8;;;;;;;16.75;96.80273;95576.68;;;;
2019/08/11 01:54:22;;;;;;;4.300001;2.8;;;;;;;16.75;96.80273;95576.68;;;;
2019/08/11 01:55:24;;;;;;;4.300001;2.8;;;;;;;16.75;96.80273;95576.68;;;;
2019/08/11 01:56:25;;;;;;;4.300001;2.8;;;;;;;16.75;96.80273;95576.68;;;;
2019/08/11 01:57:26;;;;;;;4.300001;2.8;;;;;;;16.75;96.80273;95576.68;;;;
2019/08/11 01:58:28;;;;;;;4.8;2.9;;;;;;;16.72;97.06543;95587.18;;;;
2019/08/11 01:59:29;;;;;;;4.8;2.9;;;;;;;16.72;97.06543;95587.18;;;;
2019/08/11 02:00:30;;;;;;;4.8;2.9;;;;;;;16.72;97.06543;95587.18;;;;
2019/08/11 02:01:32;;;;;;;4.8;2.9;;;;;;;16.72;97.06543;95587.18;;;;
2019/08/11 02:02:33;;;;;;;4.8;2.9;;;;;;;16.72;97.06543;95587.18;;;;
2019/08/11 02:03:35;;;;;;;4.8;2.9;;;;;;;16.72;97.06543;95587.18;;;;
2019/08/11 02:04:51;;;;;;;4.8;2.9;;;;;;;16.72;97.06543;95587.18;;;;
2019/08/11 02:05:57;;;;;;;4.8;2.9;;;;;;;16.72;97.06543;95587.18;;;;
2019/08/11 02:06:58;;;;;;;4.8;2.9;;;;;;;16.72;97.06543;95587.18;;;;
2019/08/11 02:07:59;;;;;;;4.8;2.9;;;;;;;16.72;97.06543;95587.18;;;;
2019/08/11 02:09:07;;;;;;;6.750001;2.9;;;;;;;16.85;97.23438;95588.59;;;;
2019/08/11 02:10:24;;;;;;;6.750001;2.9;;;;;;;16.85;97.23438;95588.59;;;;
2019/08/11 02:11:27;;;;;;;6.750001;2.9;;;;;;;16.85;97.23438;95588.59;;;;
2019/08/11 02:12:29;;;;;;;6.750001;2.9;;;;;;;16.85;97.23438;95588.59;;;;
2019/08/11 02:13:30;;;;;;;6.750001;2.9;;;;;;;16.85;97.23438;95588.59;;;;
2019/08/11 02:14:32;;;;;;;6.750001;2.9;;;;;;;16.85;97.23438;95588.59;;;;
2019/08/11 02:15:33;;;;;;;6.750001;2.9;;;;;;;16.85;97.23438;95588.59;;;;
2019/08/11 02:16:34;;;;;;;6.750001;2.9;;;;;;;16.85;97.23438;95588.59;;;;
2019/08/11 02:17:36;;;;;;;6.750001;2.9;;;;;;;16.85;97.23438;95588.59;;;;
2019/08/11 02:18:37;;;;;;;6.750001;2.9;;;;;;;16.85;97.23438;95588.59;;;;
2019/08/11 02:19:39;;;;;;;3.6;2.65;;;;;;;16.8;97.48145;95584.08;;;;
2019/08/11 02:20:40;;;;;;;3.6;2.65;;;;;;;16.8;97.48145;95584.08;;;;
2019/08/11 02:21:53;;;;;;;3.6;2.65;;;;;;;16.8;97.48145;95584.08;;;;
2019/08/11 02:22:54;;;;;;;3.6;2.65;;;;;;;16.8;97.48145;95584.08;;;;
2019/08/11 02:23:55;;;;;;;3.6;2.65;;;;;;;16.8;97.48145;95584.08;;;;
2019/08/11 02:24:56;;;;;;;3.6;2.65;;;;;;;16.8;97.48145;95584.08;;;;
2019/08/11 02:25:57;;;;;;;3.6;2.65;;;;;;;16.8;97.48145;95584.08;;;;
2019/08/11 02:26:59;;;;;;;3.6;2.65;;;;;;;16.8;97.48145;95584.08;;;;
2019/08/11 02:28:00;;;;;;;3.6;2.65;;;;;;;16.8;97.48145;95584.08;;;;
2019/08/11 02:29:03;;;;;;;3.6;2.65;;;;;;;16.8;97.48145;95584.08;;;;
2019/08/11 02:30:04;;;;;;;4.749999;3.1;;;;;;;16.71;97.5166;95582;;;;
2019/08/11 02:31:07;;;;;;;4.749999;3.1;;;;;;;16.71;97.5166;95582;;;;
2019/08/11 02:32:08;;;;;;;4.749999;3.1;;;;;;;16.71;97.5166;95582;;;;
2019/08/11 02:33:09;;;;;;;4.749999;3.1;;;;;;;16.71;97.5166;95582;;;;
2019/08/11 02:34:11;;;;;;;4.749999;3.1;;;;;;;16.71;97.5166;95582;;;;
2019/08/11 02:35:12;;;;;;;4.749999;3.1;;;;;;;16.71;97.5166;95582;;;;
2019/08/11 02:36:14;;;;;;;4.749999;3.1;;;;;;;16.71;97.5166;95582;;;;
2019/08/11 02:37:15;;;;;;;4.749999;3.1;;;;;;;16.71;97.5166;95582;;;;
2019/08/11 02:38:17;;;;;;;4.749999;3.1;;;;;;;16.71;97.5166;95582;;;;
2019/08/11 02:39:18;;;;;;;4.749999;3.1;;;;;;;16.71;97.5166;95582;;;;
2019/08/11 02:40:19;;;;;;;4.199999;2.9;;;;;;;16.58;97.65918;95566.13;;;;
2019/08/11 02:41:39;;;;;;;4.199999;2.9;;;;;;;16.58;97.65918;95566.13;;;;
2019/08/11 02:42:40;;;;;;;4.199999;2.9;;;;;;;16.58;97.65918;95566.13;;;;
2019/08/11 02:43:41;;;;;;;4.199999;2.9;;;;;;;16.58;97.65918;95566.13;;;;
2019/08/11 02:44:42;;;;;;;4.199999;2.9;;;;;;;16.58;97.65918;95566.13;;;;
2019/08/11 02:45:43;;;;;;;4.199999;2.9;;;;;;;16.58;97.65918;95566.13;;;;
2019/08/11 02:46:45;;;;;;;4.199999;2.9;;;;;;;16.58;97.65918;95566.13;;;;
2019/08/11 02:47:46;;;;;;;4.199999;2.9;;;;;;;16.58;97.65918;95566.13;;;;
2019/08/11 02:48:48;;;;;;;4.199999;2.9;;;;;;;16.58;97.65918;95566.13;;;;
2019/08/11 02:49:49;;;;;;;4.199999;2.9;;;;;;;16.58;97.65918;95566.13;;;;
2019/08/11 02:50:50;;;;;;;4.199999;2.9;;;;;;;16.58;97.65918;95566.13;;;;
2019/08/11 02:51:51;;;;;;;4.3;2.95;;;;;;;16.61;97.90332;95578.27;;;;
2019/08/11 02:52:52;;;;;;;4.3;2.95;;;;;;;16.61;97.90332;95578.27;;;;
2019/08/11 02:53:53;;;;;;;4.3;2.95;;;;;;;16.61;97.90332;95578.27;;;;
2019/08/11 02:54:55;;;;;;;4.3;2.95;;;;;;;16.61;97.90332;95578.27;;;;
2019/08/11 02:55:56;;;;;;;4.3;2.95;;;;;;;16.61;97.90332;95578.27;;;;
2019/08/11 02:56:57;;;;;;;4.3;2.95;;;;;;;16.61;97.90332;95578.27;;;;
2019/08/11 02:57:58;;;;;;;4.3;2.95;;;;;;;16.61;97.90332;95578.27;;;;
2019/08/11 02:58:59;;;;;;;4.3;2.95;;;;;;;16.61;97.90332;95578.27;;;;
2019/08/11 03:00:01;;;;;;;4.3;2.95;;;;;;;16.61;97.90332;95578.27;;;;
2019/08/11 03:01:05;;;;;;;4.3;2.95;;;;;;;16.61;97.90332;95578.27;;;;
2019/08/11 03:02:07;;;;;;;4.1;3;;;;;;;16.51;98.00098;95579.03;;;;
2019/08/11 03:03:08;;;;;;;4.1;3;;;;;;;16.51;98.00098;95579.03;;;;
2019/08/11 03:04:09;;;;;;;4.1;3;;;;;;;16.51;98.00098;95579.03;;;;
2019/08/11 03:05:10;;;;;;;4.1;3;;;;;;;16.51;98.00098;95579.03;;;;
2019/08/11 03:06:12;;;;;;;4.1;3;;;;;;;16.51;98.00098;95579.03;;;;
2019/08/11 03:07:13;;;;;;;4.1;3;;;;;;;16.51;98.00098;95579.03;;;;
2019/08/11 03:08:14;;;;;;;4.1;3;;;;;;;16.51;98.00098;95579.03;;;;
2019/08/11 03:09:15;;;;;;;4.1;3;;;;;;;16.51;98.00098;95579.03;;;;
2019/08/11 03:10:17;;;;;;;4.1;3;;;;;;;16.51;98.00098;95579.03;;;;
2019/08/11 03:11:19;;;;;;;4.1;3;;;;;;;16.51;98.00098;95579.03;;;;
2019/08/11 03:12:20;;;;;;;4.6;2.65;;;;;;;16.53;98.20703;95567.47;;;;
2019/08/11 03:13:22;;;;;;;4.6;2.65;;;;;;;16.53;98.20703;95567.47;;;;
2019/08/11 03:14:23;;;;;;;4.6;2.65;;;;;;;16.53;98.20703;95567.47;;;;
2019/08/11 03:15:24;;;;;;;4.6;2.65;;;;;;;16.53;98.20703;95567.47;;;;
2019/08/11 03:16:26;;;;;;;4.6;2.65;;;;;;;16.53;98.20703;95567.47;;;;
2019/08/11 03:17:27;;;;;;;4.6;2.65;;;;;;;16.53;98.20703;95567.47;;;;
2019/08/11 03:18:28;;;;;;;4.6;2.65;;;;;;;16.53;98.20703;95567.47;;;;
2019/08/11 03:19:30;;;;;;;4.6;2.65;;;;;;;16.53;98.20703;95567.47;;;;
2019/08/11 03:20:31;;;;;;;4.6;2.65;;;;;;;16.53;98.20703;95567.47;;;;
2019/08/11 03:21:32;;;;;;;4.6;2.65;;;;;;;16.53;98.20703;95567.47;;;;
2019/08/11 03:22:33;;;;;;;4.6;2.65;;;;;;;16.53;98.20703;95567.47;;;;
2019/08/11 03:23:34;;;;;;;4.75;3.1;;;;;;;16.46;98.18262;95575.45;;;;
2019/08/11 03:24:35;;;;;;;4.75;3.1;;;;;;;16.46;98.18262;95575.45;;;;
2019/08/11 03:25:36;;;;;;;4.75;3.1;;;;;;;16.46;98.18262;95575.45;;;;
2019/08/11 03:26:37;;;;;;;4.75;3.1;;;;;;;16.46;98.18262;95575.45;;;;
2019/08/11 03:27:39;;;;;;;4.75;3.1;;;;;;;16.46;98.18262;95575.45;;;;
2019/08/11 03:28:40;;;;;;;4.75;3.1;;;;;;;16.46;98.18262;95575.45;;;;
2019/08/11 03:29:41;;;;;;;4.75;3.1;;;;;;;16.46;98.18262;95575.45;;;;
2019/08/11 03:30:42;;;;;;;4.75;3.1;;;;;;;16.46;98.18262;95575.45;;;;
2019/08/11 03:31:43;;;;;;;4.75;3.1;;;;;;;16.46;98.18262;95575.45;;;;
2019/08/11 03:32:44;;;;;;;4.75;3.1;;;;;;;16.46;98.18262;95575.45;;;;
2019/08/11 03:33:45;;;;;;;4.5;2.8;;;;;;;16.42;98.29199;95578.42;;;;
2019/08/11 03:34:46;;;;;;;4.5;2.8;;;;;;;16.42;98.29199;95578.42;;;;
2019/08/11 03:35:48;;;;;;;4.5;2.8;;;;;;;16.42;98.29199;95578.42;;;;
2019/08/11 03:37:00;;;;;;;4.5;2.8;;;;;;;16.42;98.29199;95578.42;;;;
2019/08/11 03:38:01;;;;;;;4.5;2.8;;;;;;;16.42;98.29199;95578.42;;;;
2019/08/11 03:39:03;;;;;;;4.5;2.8;;;;;;;16.42;98.29199;95578.42;;;;
2019/08/11 03:40:07;;;;;;;4.5;2.8;;;;;;;16.42;98.29199;95578.42;;;;
2019/08/11 03:41:09;;;;;;;4.5;2.8;;;;;;;16.42;98.29199;95578.42;;;;
2019/08/11 03:42:10;;;;;;;4.5;2.8;;;;;;;16.42;98.29199;95578.42;;;;
2019/08/11 03:43:11;;;;;;;4.5;2.8;;;;;;;16.42;98.29199;95578.42;;;;
2019/08/11 03:44:12;;;;;;;5.65;3;;;;;;;16.21;98.37793;95565.63;;;;
2019/08/11 03:45:13;;;;;;;5.65;3;;;;;;;16.21;98.37793;95565.63;;;;
2019/08/11 03:46:15;;;;;;;5.65;3;;;;;;;16.21;98.37793;95565.63;;;;
2019/08/11 03:47:16;;;;;;;5.65;3;;;;;;;16.21;98.37793;95565.63;;;;
2019/08/11 03:48:17;;;;;;;5.65;3;;;;;;;16.21;98.37793;95565.63;;;;
2019/08/11 03:49:18;;;;;;;5.65;3;;;;;;;16.21;98.37793;95565.63;;;;
2019/08/11 03:50:19;;;;;;;5.65;3;;;;;;;16.21;98.37793;95565.63;;;;
2019/08/11 03:51:44;;;;;;;5.65;3;;;;;;;16.21;98.37793;95565.63;;;;
2019/08/11 03:52:45;;;;;;;5.65;3;;;;;;;16.21;98.37793;95565.63;;;;
2019/08/11 03:53:46;;;;;;;5.65;3;;;;;;;16.21;98.37793;95565.63;;;;
2019/08/11 03:54:47;;;;;;;4.25;3.05;;;;;;;15.94;98.94043;95569.95;;;;
2019/08/11 03:55:48;;;;;;;4.25;3.05;;;;;;;15.94;98.94043;95569.95;;;;
2019/08/11 03:56:49;;;;;;;4.25;3.05;;;;;;;15.94;98.94043;95569.95;;;;
2019/08/11 03:57:50;;;;;;;4.25;3.05;;;;;;;15.94;98.94043;95569.95;;;;
2019/08/11 03:58:52;;;;;;;4.25;3.05;;;;;;;15.94;98.94043;95569.95;;;;
2019/08/11 03:59:53;;;;;;;4.25;3.05;;;;;;;15.94;98.94043;95569.95;;;;
2019/08/11 04:00:54;;;;;;;4.25;3.05;;;;;;;15.94;98.94043;95569.95;;;;
2019/08/11 04:01:55;;;;;;;4.25;3.05;;;;;;;15.94;98.94043;95569.95;;;;
2019/08/11 04:02:56;;;;;;;4.25;3.05;;;;;;;15.94;98.94043;95569.95;;;;
2019/08/11 04:03:57;;;;;;;4.25;3.05;;;;;;;15.94;98.94043;95569.95;;;;
2019/08/11 04:04:58;;;;;;;4.25;3.05;;;;;;;15.94;98.94043;95569.95;;;;
2019/08/11 04:05:59;;;;;;;5.55;3.400001;;;;;;;15.68;99.61035;95575.89;;;;
2019/08/11 04:07:00;;;;;;;5.55;3.400001;;;;;;;15.68;99.61035;95575.89;;;;
2019/08/11 04:08:01;;;;;;;5.55;3.400001;;;;;;;15.68;99.61035;95575.89;;;;
2019/08/11 04:09:03;;;;;;;5.55;3.400001;;;;;;;15.68;99.61035;95575.89;;;;
2019/08/11 04:10:05;;;;;;;5.55;3.400001;;;;;;;15.68;99.61035;95575.89;;;;
2019/08/11 04:11:07;;;;;;;5.55;3.400001;;;;;;;15.68;99.61035;95575.89;;;;
2019/08/11 04:12:08;;;;;;;5.55;3.400001;;;;;;;15.68;99.61035;95575.89;;;;
2019/08/11 04:13:09;;;;;;;5.55;3.400001;;;;;;;15.68;99.61035;95575.89;;;;
2019/08/11 04:14:10;;;;;;;5.55;3.400001;;;;;;;15.68;99.61035;95575.89;;;;
2019/08/11 04:15:11;;;;;;;5.55;3.400001;;;;;;;15.68;99.61035;95575.89;;;;
2019/08/11 04:16:13;;;;;;;5.35;3.45;;;;;;;15.6;100;95575.41;;;;
2019/08/11 04:17:14;;;;;;;5.35;3.45;;;;;;;15.6;100;95575.41;;;;
2019/08/11 04:18:15;;;;;;;5.35;3.45;;;;;;;15.6;100;95575.41;;;;
2019/08/11 04:19:16;;;;;;;5.35;3.45;;;;;;;15.6;100;95575.41;;;;
2019/08/11 04:20:17;;;;;;;5.35;3.45;;;;;;;15.6;100;95575.41;;;;
2019/08/11 04:21:18;;;;;;;5.35;3.45;;;;;;;15.6;100;95575.41;;;;
2019/08/11 04:22:19;;;;;;;5.35;3.45;;;;;;;15.6;100;95575.41;;;;
2019/08/11 04:23:20;;;;;;;5.35;3.45;;;;;;;15.6;100;95575.41;;;;
2019/08/11 04:24:21;;;;;;;5.35;3.45;;;;;;;15.6;100;95575.41;;;;
2019/08/11 04:25:23;;;;;;;5.35;3.45;;;;;;;15.6;100;95575.41;;;;
2019/08/11 04:26:32;;;;;;;5.300001;3.25;;;;;;;15.68;100;95577.25;;;;
2019/08/11 04:27:33;;;;;;;5.300001;3.25;;;;;;;15.68;100;95577.25;;;;
2019/08/11 04:28:34;;;;;;;5.300001;3.25;;;;;;;15.68;100;95577.25;;;;
2019/08/11 04:29:35;;;;;;;5.300001;3.25;;;;;;;15.68;100;95577.25;;;;
2019/08/11 04:30:36;;;;;;;5.300001;3.25;;;;;;;15.68;100;95577.25;;;;
2019/08/11 04:31:40;;;;;;;5.300001;3.25;;;;;;;15.68;100;95577.25;;;;
2019/08/11 04:32:41;;;;;;;5.300001;3.25;;;;;;;15.68;100;95577.25;;;;
2019/08/11 04:33:43;;;;;;;5.300001;3.25;;;;;;;15.68;100;95577.25;;;;
2019/08/11 04:34:44;;;;;;;5.300001;3.25;;;;;;;15.68;100;95577.25;;;;
2019/08/11 04:35:45;;;;;;;5.300001;3.25;;;;;;;15.68;100;95577.25;;;;
2019/08/11 04:36:46;;;;;;;5.300001;3.25;;;;;;;15.68;100;95577.25;;;;
2019/08/11 04:37:48;;;;;;;5.300001;3.25;;;;;;;15.68;100;95577.25;;;;
2019/08/11 04:38:49;;;;;;;5.300001;3.25;;;;;;;15.68;100;95577.25;;;;
2019/08/11 04:39:50;;;;;;;5.300001;3.25;;;;;;;15.68;100;95577.25;;;;
2019/08/11 04:40:51;;;;;;;5.300001;3.25;;;;;;;15.68;100;95577.25;;;;
2019/08/11 04:41:52;;;;;;;5.300001;3.25;;;;;;;15.68;100;95577.25;;;;
2019/08/11 04:42:53;;;;;;;5.300001;3.25;;;;;;;15.68;100;95577.25;;;;
2019/08/11 04:43:54;;;;;;;5.300001;3.25;;;;;;;15.68;100;95577.25;;;;
2019/08/11 04:44:55;;;;;;;5.300001;3.25;;;;;;;15.68;100;95577.25;;;;
2019/08/11 04:45:56;;;;;;;5.300001;3.25;;;;;;;15.68;100;95577.25;;;;
2019/08/11 04:46:58;;;;;;;5.300001;3.25;;;;;;;15.68;100;95577.25;;;;
2019/08/11 04:47:59;;;;;;;5.3;3.4;;;;;;;16.13;100;95579.35;;;;
2019/08/11 04:49:00;;;;;;;5.3;3.4;;;;;;;16.13;100;95579.35;;;;
2019/08/11 04:50:01;;;;;;;5.3;3.4;;;;;;;16.13;100;95579.35;;;;
2019/08/11 04:51:03;;;;;;;5.3;3.4;;;;;;;16.13;100;95579.35;;;;
2019/08/11 04:52:04;;;;;;;5.3;3.4;;;;;;;16.13;100;95579.35;;;;
2019/08/11 04:53:05;;;;;;;5.3;3.4;;;;;;;16.13;100;95579.35;;;;
2019/08/11 04:54:06;;;;;;;5.3;3.4;;;;;;;16.13;100;95579.35;;;;
2019/08/11 04:55:07;;;;;;;5.3;3.4;;;;;;;16.13;100;95579.35;;;;
2019/08/11 04:56:08;;;;;;;5.3;3.4;;;;;;;16.13;100;95579.35;;;;
2019/08/11 04:57:10;;;;;;;5.3;3.4;;;;;;;16.13;100;95579.35;;;;
2019/08/11 04:58:11;;;;;;;5.3;3.4;;;;;;;16.13;100;95579.35;;;;
2019/08/11 04:59:12;;;;;;;3.95;2.900001;;;;;;;16.22;100;95573.69;;;;
2019/08/11 05:00:13;;;;;;;3.95;2.900001;;;;;;;16.22;100;95573.69;;;;
2019/08/11 05:01:20;;;;;;;3.95;2.900001;;;;;;;16.22;100;95573.69;;;;
2019/08/11 05:02:21;;;;;;;3.95;2.900001;;;;;;;16.22;100;95573.69;;;;
2019/08/11 05:03:22;;;;;;;3.95;2.900001;;;;;;;16.22;100;95573.69;;;;
2019/08/11 05:04:23;;;;;;;3.95;2.900001;;;;;;;16.22;100;95573.69;;;;
2019/08/11 05:05:25;;;;;;;3.95;2.900001;;;;;;;16.22;100;95573.69;;;;
2019/08/11 05:06:26;;;;;;;3.95;2.900001;;;;;;;16.22;100;95573.69;;;;
2019/08/11 05:07:27;;;;;;;3.95;2.900001;;;;;;;16.22;100;95573.69;;;;
2019/08/11 05:08:28;;;;;;;3.95;2.900001;;;;;;;16.22;100;95573.69;;;;
2019/08/11 05:09:29;;;;;;;5.5;3.3;;;;;;;16.24;100;95563.34;;;;
2019/08/11 05:10:30;;;;;;;5.5;3.3;;;;;;;16.24;100;95563.34;;;;
2019/08/11 05:11:31;;;;;;;5.5;3.3;;;;;;;16.24;100;95563.34;;;;
2019/08/11 05:12:32;;;;;;;5.5;3.3;;;;;;;16.24;100;95563.34;;;;
2019/08/11 05:13:33;;;;;;;5.5;3.3;;;;;;;16.24;100;95563.34;;;;
2019/08/11 05:14:34;;;;;;;5.5;3.3;;;;;;;16.24;100;95563.34;;;;
2019/08/11 05:15:36;;;;;;;5.5;3.3;;;;;;;16.24;100;95563.34;;;;
2019/08/11 05:16:37;;;;;;;5.5;3.3;;;;;;;16.24;100;95563.34;;;;
2019/08/11 05:17:38;;;;;;;5.5;3.3;;;;;;;16.24;100;95563.34;;;;
2019/08/11 05:18:39;;;;;;;5.5;3.3;;;;;;;16.24;100;95563.34;;;;
2019/08/11 05:19:41;;;;;;;5.25;3.3;;;;;;;16.43;100;95552.26;;;;
2019/08/11 05:20:42;;;;;;;5.25;3.3;;;;;;;16.43;100;95552.26;;;;
2019/08/11 05:21:44;;;;;;;5.25;3.3;;;;;;;16.43;100;95552.26;;;;
2019/08/11 05:22:45;;;;;;;5.25;3.3;;;;;;;16.43;100;95552.26;;;;
2019/08/11 05:23:46;;;;;;;5.25;3.3;;;;;;;16.43;100;95552.26;;;;
2019/08/11 05:24:47;;;;;;;5.25;3.3;;;;;;;16.43;100;95552.26;;;;
2019/08/11 05:25:48;;;;;;;5.25;3.3;;;;;;;16.43;100;95552.26;;;;
2019/08/11 05:26:49;;;;;;;5.25;3.3;;;;;;;16.43;100;95552.26;;;;
2019/08/11 05:27:50;;;;;;;5.25;3.3;;;;;;;16.43;100;95552.26;;;;
2019/08/11 05:28:51;;;;;;;5.25;3.3;;;;;;;16.43;100;95552.26;;;;
2019/08/11 05:29:52;;;;;;;5.25;3.3;;;;;;;16.43;100;95552.26;;;;
2019/08/11 05:30:54;;;;;;;4.95;3.4;;;;;;;16.72;100;95554.99;;;;
2019/08/11 05:31:55;;;;;;;4.95;3.4;;;;;;;16.72;100;95554.99;;;;
2019/08/11 05:32:56;;;;;;;4.95;3.4;;;;;;;16.72;100;95554.99;;;;
2019/08/11 05:33:57;;;;;;;4.95;3.4;;;;;;;16.72;100;95554.99;;;;
2019/08/11 05:34:58;;;;;;;4.95;3.4;;;;;;;16.72;100;95554.99;;;;
2019/08/11 05:35:59;;;;;;;4.95;3.4;;;;;;;16.72;100;95554.99;;;;
2019/08/11 05:37:00;;;;;;;4.95;3.4;;;;;;;16.72;100;95554.99;;;;
2019/08/11 05:38:01;;;;;;;4.95;3.4;;;;;;;16.72;100;95554.99;;;;
2019/08/11 05:39:04;;;;;;;4.95;3.4;;;;;;;16.72;100;95554.99;;;;
2019/08/11 05:40:05;;;;;;;4.95;3.4;;;;;;;16.72;100;95554.99;;;;
2019/08/11 05:41:06;;;;;;;5.55;3.15;;;;;;;17.11;100;95550.31;;;;
2019/08/11 05:42:07;;;;;;;5.55;3.15;;;;;;;17.11;100;95550.31;;;;
2019/08/11 05:43:08;;;;;;;5.55;3.15;;;;;;;17.11;100;95550.31;;;;
2019/08/11 05:44:10;;;;;;;5.55;3.15;;;;;;;17.11;100;95550.31;;;;
2019/08/11 05:45:11;;;;;;;5.55;3.15;;;;;;;17.11;100;95550.31;;;;
2019/08/11 05:46:12;;;;;;;5.55;3.15;;;;;;;17.11;100;95550.31;;;;
2019/08/11 05:47:13;;;;;;;5.55;3.15;;;;;;;17.11;100;95550.31;;;;
2019/08/11 05:48:14;;;;;;;5.55;3.15;;;;;;;17.11;100;95550.31;;;;
2019/08/11 05:49:15;;;;;;;5.55;3.15;;;;;;;17.11;100;95550.31;;;;
2019/08/11 05:50:16;;;;;;;5.55;3.15;;;;;;;17.11;100;95550.31;;;;
2019/08/11 05:51:18;;;;;;;5.55;3.15;;;;;;;17.11;100;95550.31;;;;
2019/08/11 05:52:19;;;;;;;6;3.3;;;;;;;17.48;100;95560.11;;;;
2019/08/11 05:53:20;;;;;;;6;3.3;;;;;;;17.48;100;95560.11;;;;
2019/08/11 05:54:21;;;;;;;6;3.3;;;;;;;17.48;100;95560.11;;;;
2019/08/11 05:55:23;;;;;;;6;3.3;;;;;;;17.48;100;95560.11;;;;
2019/08/11 05:56:24;;;;;;;6;3.3;;;;;;;17.48;100;95560.11;;;;